Time;durP1;ratioP1;P1;durP2;ratioP2;P2;SDS_P1;SDS_P2;PMS_P1;PMS_P2;Temp;Humidity;BMP_temperature;BMP_pressure;BME280_temperature;BME280_humidity;BME280_pressure;Samples;Min_cycle;Max_cycle;Signal;HPM_P1;HPM_P2
2022/07/22 00:02:07;;;;;;;16.70;12.52;;;;;;;;;;4923875;29;20074;-72
2022/07/22 00:04:32;;;;;;;18.73;12.20;;;;;;;;;;4924864;29;20449;-73
2022/07/22 00:06:58;;;;;;;15.60;12.10;;;;;;;;;;4924503;29;20078;-73
2022/07/22 00:09:23;;;;;;;17.95;11.63;;;;;;;;;;4923336;29;20994;-73
2022/07/22 00:11:49;;;;;;;16.30;11.60;;;;;;;;;;4922444;29;20044;-73
2022/07/22 00:14:14;;;;;;;17.08;12.60;;;;;;;;;;4924666;29;20074;-73
2022/07/22 00:16:40;;;;;;;15.20;12.68;;;;;;;;;;4924555;29;20039;-73
2022/07/22 00:19:08;;;;;;;26.75;13.73;;;;;;;;;;4924253;29;20032;-73
2022/07/22 00:21:34;;;;;;;17.77;13.43;;;;;;;;;;4924692;29;20392;-73
2022/07/22 00:24:00;;;;;;;17.40;13.73;;;;;;;;;;4923510;29;20458;-72
2022/07/22 00:26:25;;;;;;;16.33;13.35;;;;;;;;;;4923143;29;20067;-73
2022/07/22 00:28:51;;;;;;;23.73;13.68;;;;;;;;;;4922698;29;20418;-72
2022/07/22 00:31:16;;;;;;;16.52;12.13;;;;;;;;;;4923236;29;20500;-72
2022/07/22 00:33:42;;;;;;;18.45;13.23;;;;;;;;;;4923673;29;20417;-72
2022/07/22 00:36:07;;;;;;;17.92;12.95;;;;;;;;;;4924258;29;20031;-73
2022/07/22 00:38:33;;;;;;;17.73;13.52;;;;;;;;;;4924463;28;20139;-72
2022/07/22 00:40:58;;;;;;;17.90;12.75;;;;;;;;;;4922862;29;21064;-72
2022/07/22 00:43:24;;;;;;;18.30;11.68;;;;;;;;;;4924263;29;20114;-72
2022/07/22 00:45:49;;;;;;;18.25;12.93;;;;;;;;;;4922051;29;20090;-72
2022/07/22 00:48:15;;;;;;;15.05;12.35;;;;;;;;;;4924187;29;20078;-72
2022/07/22 00:50:41;;;;;;;16.73;12.32;;;;;;;;;;4923837;29;20055;-72
2022/07/22 00:53:08;;;;;;;15.70;12.32;;;;;;;;;;4923795;29;20023;-72
2022/07/22 00:55:34;;;;;;;14.77;12.02;;;;;;;;;;4923577;29;20040;-72
2022/07/22 00:58:02;;;;;;;19.20;12.20;;;;;;;;;;4922363;29;20043;-72
2022/07/22 01:00:28;;;;;;;17.98;13.43;;;;;;;;;;4923936;29;20481;-72
2022/07/22 01:02:55;;;;;;;20.77;13.88;;;;;;;;;;4922521;29;20043;-72
2022/07/22 01:05:21;;;;;;;20.13;13.25;;;;;;;;;;4922965;29;20449;-72
2022/07/22 01:07:47;;;;;;;16.33;12.20;;;;;;;;;;4921618;29;20489;-72
2022/07/22 01:10:13;;;;;;;19.75;12.82;;;;;;;;;;4923651;29;20043;-72
2022/07/22 01:12:39;;;;;;;21.88;13.20;;;;;;;;;;4922729;29;20156;-72
2022/07/22 01:15:05;;;;;;;19.85;12.25;;;;;;;;;;4923686;29;20054;-72
2022/07/22 01:17:31;;;;;;;20.20;12.75;;;;;;;;;;4921830;29;20039;-72
2022/07/22 01:20:06;;;;;;;20.65;14.00;;;;;;;;;;4922211;29;20043;-72
2022/07/22 01:22:31;;;;;;;14.93;12.48;;;;;;;;;;4922778;29;20602;-72
2022/07/22 01:24:57;;;;;;;18.27;12.30;;;;;;;;;;4922851;29;20066;-71
2022/07/22 01:27:22;;;;;;;21.60;12.57;;;;;;;;;;4918731;29;20429;-74
2022/07/22 01:29:48;;;;;;;17.75;12.77;;;;;;;;;;4921512;29;20039;-73
2022/07/22 01:32:14;;;;;;;17.35;12.40;;;;;;;;;;4923860;29;20031;-73
2022/07/22 01:34:39;;;;;;;18.35;12.63;;;;;;;;;;4924037;29;20048;-73
2022/07/22 01:37:05;;;;;;;20.42;13.25;;;;;;;;;;4922144;29;20051;-73
2022/07/22 01:39:30;;;;;;;18.17;13.00;;;;;;;;;;4923320;29;20039;-73
2022/07/22 01:41:56;;;;;;;16.20;12.52;;;;;;;;;;4921886;29;20144;-73
2022/07/22 01:44:21;;;;;;;16.50;11.50;;;;;;;;;;4923877;29;20385;-73
2022/07/22 01:46:47;;;;;;;17.90;12.40;;;;;;;;;;4921878;29;20036;-73
2022/07/22 01:49:12;;;;;;;18.23;12.07;;;;;;;;;;4923629;29;20452;-73
2022/07/22 01:51:39;;;;;;;19.67;12.75;;;;;;;;;;4905819;29;20047;-73
2022/07/22 01:54:04;;;;;;;20.63;13.43;;;;;;;;;;4922405;29;20035;-73
2022/07/22 01:56:30;;;;;;;19.77;13.07;;;;;;;;;;4922040;29;20082;-73
2022/07/22 01:58:56;;;;;;;21.88;13.40;;;;;;;;;;4921682;29;20039;-73
2022/07/22 02:01:25;;;;;;;20.65;12.98;;;;;;;;;;4921838;29;20043;-73
2022/07/22 02:03:52;;;;;;;17.73;13.63;;;;;;;;;;4923033;29;20122;-73
2022/07/22 02:06:19;;;;;;;20.70;15.75;;;;;;;;;;4925426;29;20027;-73
2022/07/22 02:08:45;;;;;;;20.45;15.63;;;;;;;;;;4925558;29;20448;-73
2022/07/22 02:11:18;;;;;;;25.98;14.63;;;;;;;;;;4925200;29;20032;-73
2022/07/22 02:13:57;;;;;;;18.55;13.73;;;;;;;;;;4924728;29;20412;-73
2022/07/22 02:16:24;;;;;;;20.58;13.20;;;;;;;;;;4925380;29;20035;-73
2022/07/22 02:18:50;;;;;;;22.23;13.43;;;;;;;;;;4925113;29;20032;-73
2022/07/22 02:21:16;;;;;;;20.20;14.43;;;;;;;;;;4925400;29;20659;-73
2022/07/22 02:23:42;;;;;;;18.83;14.05;;;;;;;;;;4924591;29;20039;-73
2022/07/22 02:26:08;;;;;;;19.75;13.30;;;;;;;;;;4924820;29;20066;-73
2022/07/22 02:28:35;;;;;;;17.27;13.85;;;;;;;;;;4925259;29;20118;-73
2022/07/22 02:31:01;;;;;;;19.10;14.90;;;;;;;;;;4924787;29;20044;-73
2022/07/22 02:33:27;;;;;;;22.80;15.23;;;;;;;;;;4925546;29;20032;-73
2022/07/22 02:35:52;;;;;;;21.23;15.40;;;;;;;;;;4924290;29;20054;-73
2022/07/22 02:38:18;;;;;;;22.35;15.27;;;;;;;;;;4927464;29;20094;-73
2022/07/22 02:40:43;;;;;;;21.50;14.52;;;;;;;;;;4931502;29;20066;-73
2022/07/22 02:43:10;;;;;;;19.48;15.02;;;;;;;;;;4927400;29;20035;-73
2022/07/22 02:45:35;;;;;;;20.05;15.27;;;;;;;;;;4908932;29;20094;-73
2022/07/22 02:48:01;;;;;;;19.90;15.70;;;;;;;;;;4924507;29;20098;-72
2022/07/22 02:50:26;;;;;;;25.05;15.88;;;;;;;;;;4909014;29;20035;-73
2022/07/22 02:52:53;;;;;;;19.35;15.07;;;;;;;;;;4924543;29;20519;-73
2022/07/22 02:55:21;;;;;;;21.98;15.05;;;;;;;;;;4924708;29;20055;-72
2022/07/22 02:57:48;;;;;;;21.10;16.20;;;;;;;;;;4923817;29;20036;-72
2022/07/22 03:00:15;;;;;;;24.00;17.38;;;;;;;;;;4924324;29;20028;-72
2022/07/22 03:02:40;;;;;;;24.38;15.60;;;;;;;;;;4924642;29;20436;-72
2022/07/22 03:05:06;;;;;;;22.92;15.52;;;;;;;;;;4924443;29;20047;-73
2022/07/22 03:07:35;;;;;;;19.55;14.48;;;;;;;;;;4923529;29;20404;-73
2022/07/22 03:10:02;;;;;;;22.05;14.85;;;;;;;;;;4924182;29;20040;-73
2022/07/22 03:12:28;;;;;;;18.02;14.25;;;;;;;;;;4924290;29;20043;-73
2022/07/22 03:14:53;;;;;;;20.30;14.93;;;;;;;;;;4924061;29;20610;-72
2022/07/22 03:17:19;;;;;;;19.42;14.52;;;;;;;;;;4925682;29;20059;-72
2022/07/22 03:19:44;;;;;;;26.58;15.23;;;;;;;;;;4923279;29;20036;-72
2022/07/22 03:22:09;;;;;;;20.42;15.35;;;;;;;;;;4924222;29;20046;-72
2022/07/22 03:24:35;;;;;;;28.33;17.90;;;;;;;;;;4924134;29;20552;-73
2022/07/22 03:27:00;;;;;;;22.60;17.63;;;;;;;;;;4922402;29;20046;-73
2022/07/22 03:29:29;;;;;;;22.90;16.58;;;;;;;;;;4922719;29;20051;-72
2022/07/22 03:31:54;;;;;;;24.50;15.80;;;;;;;;;;4923797;29;20500;-72
2022/07/22 03:34:35;;;;;;;22.10;15.15;;;;;;;;;;4921757;29;20035;-73
2022/07/22 03:37:04;;;;;;;20.88;14.13;;;;;;;;;;4908166;29;20036;-72
2022/07/22 03:39:30;;;;;;;19.73;15.23;;;;;;;;;;4923678;29;20051;-72
2022/07/22 03:41:55;;;;;;;21.92;15.93;;;;;;;;;;4923057;29;20538;-72
2022/07/22 03:44:22;;;;;;;21.50;16.33;;;;;;;;;;4924072;29;20031;-72
2022/07/22 03:46:48;;;;;;;25.17;17.88;;;;;;;;;;4923299;29;20031;-72
2022/07/22 03:49:14;;;;;;;20.17;15.35;;;;;;;;;;4923635;29;20043;-72
2022/07/22 03:51:40;;;;;;;23.13;17.05;;;;;;;;;;4923292;29;20044;-73
2022/07/22 03:54:06;;;;;;;22.65;16.05;;;;;;;;;;4923809;29;21145;-72
2022/07/22 03:56:31;;;;;;;21.20;15.80;;;;;;;;;;4923694;29;20027;-72
2022/07/22 03:58:57;;;;;;;21.73;15.23;;;;;;;;;;4923869;29;20513;-71
2022/07/22 04:01:22;;;;;;;21.35;15.25;;;;;;;;;;4925316;29;20099;-71
2022/07/22 04:03:48;;;;;;;25.42;16.60;;;;;;;;;;4922549;29;20099;-72
2022/07/22 04:06:32;;;;;;;23.13;16.15;;;;;;;;;;4922812;29;20505;-72
2022/07/22 04:09:05;;;;;;;21.27;15.90;;;;;;;;;;4923276;29;20034;-72
2022/07/22 04:11:33;;;;;;;21.10;15.82;;;;;;;;;;4923425;29;20049;-72
2022/07/22 04:13:58;;;;;;;24.00;16.63;;;;;;;;;;4922509;29;20065;-71
2022/07/22 04:16:24;;;;;;;22.33;16.00;;;;;;;;;;4922790;29;20032;-72
2022/07/22 04:18:57;;;;;;;21.05;15.20;;;;;;;;;;4923085;29;20035;-72
2022/07/22 04:21:39;;;;;;;21.53;15.43;;;;;;;;;;4923269;29;20031;-72
2022/07/22 04:24:08;;;;;;;20.75;15.68;;;;;;;;;;4922545;29;20286;-72
2022/07/22 04:26:34;;;;;;;19.67;14.45;;;;;;;;;;4922128;29;20040;-72
2022/07/22 04:28:59;;;;;;;19.70;15.30;;;;;;;;;;4924170;29;20035;-72
2022/07/22 04:31:25;;;;;;;23.00;16.02;;;;;;;;;;4923320;29;20051;-72
2022/07/22 04:33:58;;;;;;;20.55;14.52;;;;;;;;;;4923115;29;20760;-72
2022/07/22 04:36:24;;;;;;;17.70;14.23;;;;;;;;;;4922446;29;20131;-72
2022/07/22 04:38:51;;;;;;;23.42;15.60;;;;;;;;;;4923327;29;20382;-72
2022/07/22 04:41:18;;;;;;;22.13;14.73;;;;;;;;;;4922681;29;20433;-71
2022/07/22 04:43:43;;;;;;;21.70;14.40;;;;;;;;;;4907434;29;20769;-71
2022/07/22 04:46:09;;;;;;;17.75;13.88;;;;;;;;;;4922224;29;20047;-71
2022/07/22 04:48:39;;;;;;;20.48;14.85;;;;;;;;;;4938486;29;20051;-71
2022/07/22 04:51:04;;;;;;;22.27;13.90;;;;;;;;;;4922668;29;20039;-74
2022/07/22 04:53:31;;;;;;;17.10;13.30;;;;;;;;;;4924271;29;20885;-74
2022/07/22 04:55:57;;;;;;;16.23;12.25;;;;;;;;;;4924119;29;20046;-73
2022/07/22 04:58:23;;;;;;;18.33;12.95;;;;;;;;;;4921558;29;20048;-73
2022/07/22 05:00:49;;;;;;;19.02;14.13;;;;;;;;;;4918682;29;20123;-72
2022/07/22 05:03:15;;;;;;;17.20;13.65;;;;;;;;;;4922584;29;21055;-71
2022/07/22 05:05:42;;;;;;;19.52;13.60;;;;;;;;;;4923478;29;20039;-74
2022/07/22 05:08:07;;;;;;;17.52;12.18;;;;;;;;;;4922412;29;20558;-76
2022/07/22 05:10:33;;;;;;;16.25;11.95;;;;;;;;;;4936866;28;20032;-73
2022/07/22 05:12:59;;;;;;;16.38;12.13;;;;;;;;;;4920683;29;20564;-75
2022/07/22 05:15:25;;;;;;;19.50;11.80;;;;;;;;;;4921006;29;20040;-74
2022/07/22 05:17:51;;;;;;;17.50;11.57;;;;;;;;;;4920700;29;20386;-74
2022/07/22 05:20:21;;;;;;;14.52;10.70;;;;;;;;;;4920103;29;20111;-74
2022/07/22 05:22:47;;;;;;;17.90;11.23;;;;;;;;;;4921992;29;20457;-76
2022/07/22 05:25:16;;;;;;;18.30;11.55;;;;;;;;;;4920871;29;20955;-76
2022/07/22 05:27:53;;;;;;;15.98;10.55;;;;;;;;;;4922287;29;20499;-75
2022/07/22 05:30:24;;;;;;;14.68;10.27;;;;;;;;;;4921269;29;20088;-74
2022/07/22 05:32:50;;;;;;;14.30;10.57;;;;;;;;;;4922261;29;20051;-75
2022/07/22 05:35:21;;;;;;;12.95;10.55;;;;;;;;;;4923039;29;20036;-74
2022/07/22 05:37:47;;;;;;;14.25;11.38;;;;;;;;;;4922672;29;20059;-74
2022/07/22 05:40:13;;;;;;;13.35;10.82;;;;;;;;;;4925277;29;20114;-74
2022/07/22 05:42:39;;;;;;;22.83;11.02;;;;;;;;;;4925838;29;20404;-73
2022/07/22 05:45:04;;;;;;;18.48;10.70;;;;;;;;;;4927145;29;20122;-74
2022/07/22 05:47:30;;;;;;;13.68;10.75;;;;;;;;;;4925501;29;20106;-75
2022/07/22 05:49:56;;;;;;;10.48;9.27;;;;;;;;;;4925232;29;20031;-75
2022/07/22 05:52:21;;;;;;;15.02;9.43;;;;;;;;;;4924335;29;20968;-73
2022/07/22 05:54:48;;;;;;;12.10;8.10;;;;;;;;;;4925553;29;20079;-73
2022/07/22 05:57:14;;;;;;;9.55;7.45;;;;;;;;;;4908120;29;20039;-73
2022/07/22 05:59:40;;;;;;;13.20;8.63;;;;;;;;;;4923605;29;20094;-76
2022/07/22 06:02:06;;;;;;;15.07;9.02;;;;;;;;;;4907765;29;20027;-76
2022/07/22 06:04:39;;;;;;;11.38;9.95;;;;;;;;;;4923629;29;20039;-75
2022/07/22 06:07:06;;;;;;;12.55;9.75;;;;;;;;;;4907955;29;20036;-74
2022/07/22 06:09:33;;;;;;;11.18;8.75;;;;;;;;;;4923392;29;20054;-73
2022/07/22 06:11:59;;;;;;;11.20;9.73;;;;;;;;;;4924343;29;20489;-74
2022/07/22 06:14:24;;;;;;;16.67;9.68;;;;;;;;;;4908686;29;20052;-73
2022/07/22 06:16:51;;;;;;;11.77;8.85;;;;;;;;;;4924921;29;20055;-74
2022/07/22 06:19:16;;;;;;;12.05;8.77;;;;;;;;;;4909112;29;20035;-73
2022/07/22 06:21:42;;;;;;;12.88;8.38;;;;;;;;;;4925007;29;20031;-73
2022/07/22 06:24:10;;;;;;;13.02;8.27;;;;;;;;;;4924341;29;20035;-74
2022/07/22 06:26:36;;;;;;;12.05;9.05;;;;;;;;;;4924855;29;20477;-72
2022/07/22 06:29:01;;;;;;;12.35;8.05;;;;;;;;;;4925053;29;20457;-72
2022/07/22 06:31:27;;;;;;;9.38;7.75;;;;;;;;;;4925308;29;20083;-73
2022/07/22 06:33:52;;;;;;;11.73;8.20;;;;;;;;;;4924961;29;20039;-75
2022/07/22 06:36:18;;;;;;;9.85;8.38;;;;;;;;;;4924581;29;20083;-72
2022/07/22 06:38:44;;;;;;;9.63;8.05;;;;;;;;;;4924465;29;20123;-75
2022/07/22 06:41:28;;;;;;;11.10;7.78;;;;;;;;;;4925328;29;20050;-72
2022/07/22 06:44:02;;;;;;;10.57;7.90;;;;;;;;;;4926310;29;20055;-74
2022/07/22 06:46:58;;;;;;;9.25;7.80;;;;;;;;;;4924076;29;20048;-71
2022/07/22 06:49:25;;;;;;;10.95;7.53;;;;;;;;;;4923753;29;20028;-73
2022/07/22 06:51:52;;;;;;;13.02;8.30;;;;;;;;;;4924339;29;20040;-71
2022/07/22 06:54:17;;;;;;;12.88;7.60;;;;;;;;;;4925319;29;20023;-71
2022/07/22 06:56:43;;;;;;;10.00;8.45;;;;;;;;;;4924008;29;20516;-69
2022/07/22 06:59:14;;;;;;;15.30;8.18;;;;;;;;;;4923239;29;20046;-70
2022/07/22 07:01:39;;;;;;;12.20;8.20;;;;;;;;;;4926265;29;20039;-70
2022/07/22 07:04:05;;;;;;;10.50;8.15;;;;;;;;;;4924503;29;20039;-71
2022/07/22 07:06:30;;;;;;;9.00;7.20;;;;;;;;;;4924333;29;20038;-71
2022/07/22 07:09:04;;;;;;;10.52;8.20;;;;;;;;;;4923397;29;21365;-69
2022/07/22 07:11:31;;;;;;;12.85;8.15;;;;;;;;;;4924602;29;20070;-72
2022/07/22 07:13:57;;;;;;;11.38;7.55;;;;;;;;;;4924803;29;20173;-70
2022/07/22 07:16:22;;;;;;;12.35;7.95;;;;;;;;;;4924398;29;20066;-71
2022/07/22 07:18:48;;;;;;;10.45;7.75;;;;;;;;;;4924029;29;20485;-70
2022/07/22 07:21:14;;;;;;;9.48;6.93;;;;;;;;;;4926100;29;20036;-70
2022/07/22 07:23:39;;;;;;;11.20;7.15;;;;;;;;;;4928162;29;20048;-70
2022/07/22 07:26:05;;;;;;;8.85;7.50;;;;;;;;;;4924173;29;20035;-70
2022/07/22 07:28:31;;;;;;;10.57;7.35;;;;;;;;;;4923827;29;20106;-70
2022/07/22 07:31:22;;;;;;;8.82;6.85;;;;;;;;;;4920491;29;20063;-70
2022/07/22 07:33:51;;;;;;;8.48;6.78;;;;;;;;;;4924063;29;20134;-70
2022/07/22 07:36:16;;;;;;;11.77;7.25;;;;;;;;;;4925132;29;20118;-72
2022/07/22 07:38:47;;;;;;;8.18;6.60;;;;;;;;;;4923616;29;20039;-72
2022/07/22 07:41:15;;;;;;;9.85;6.80;;;;;;;;;;4922928;29;20040;-69
2022/07/22 07:43:42;;;;;;;7.88;6.70;;;;;;;;;;4923839;29;20508;-70
2022/07/22 07:46:07;;;;;;;7.43;6.50;;;;;;;;;;4923951;29;20036;-74
2022/07/22 07:48:34;;;;;;;7.95;6.28;;;;;;;;;;4923120;29;20039;-75
2022/07/22 07:50:59;;;;;;;8.77;6.28;;;;;;;;;;4923339;29;20440;-72
2022/07/22 07:53:25;;;;;;;11.30;6.50;;;;;;;;;;4924361;29;20040;-72
2022/07/22 07:55:51;;;;;;;10.82;6.90;;;;;;;;;;4923505;29;20043;-71
2022/07/22 07:58:17;;;;;;;10.05;6.85;;;;;;;;;;4923400;29;20412;-73
2022/07/22 08:00:43;;;;;;;10.68;6.40;;;;;;;;;;4923345;29;20531;-71
2022/07/22 08:03:10;;;;;;;7.93;6.90;;;;;;;;;;4922578;29;20507;-72
2022/07/22 08:05:36;;;;;;;10.65;7.22;;;;;;;;;;4923399;29;20046;-74
2022/07/22 08:08:02;;;;;;;10.73;6.75;;;;;;;;;;4923640;29;20035;-73
2022/07/22 08:10:28;;;;;;;9.45;6.53;;;;;;;;;;4922866;29;20493;-73
2022/07/22 08:13:03;;;;;;;8.25;6.65;;;;;;;;;;4925583;29;20074;-73
2022/07/22 08:15:47;;;;;;;12.00;6.78;;;;;;;;;;4923836;29;20035;-74
2022/07/22 08:18:21;;;;;;;8.13;6.45;;;;;;;;;;4923058;29;20042;-74
2022/07/22 08:20:47;;;;;;;9.18;5.60;;;;;;;;;;4922650;29;20044;-71
2022/07/22 08:23:12;;;;;;;9.65;6.60;;;;;;;;;;4923418;29;20030;-72
2022/07/22 08:25:40;;;;;;;11.65;7.07;;;;;;;;;;4922492;29;20848;-72
2022/07/22 08:28:06;;;;;;;12.75;6.65;;;;;;;;;;4922576;29;20032;-73
2022/07/22 08:30:34;;;;;;;9.00;6.10;;;;;;;;;;4922787;29;20139;-72
2022/07/22 08:33:00;;;;;;;6.72;5.65;;;;;;;;;;4922787;29;20038;-72
2022/07/22 08:35:25;;;;;;;7.97;5.70;;;;;;;;;;4923203;29;20040;-73
2022/07/22 08:37:51;;;;;;;6.55;5.38;;;;;;;;;;4922141;29;20679;-73
2022/07/22 08:40:18;;;;;;;13.45;5.80;;;;;;;;;;4922703;29;20027;-71
2022/07/22 08:42:47;;;;;;;8.40;5.38;;;;;;;;;;4922803;29;20509;-74
2022/07/22 08:45:14;;;;;;;5.55;4.97;;;;;;;;;;4922827;29;20039;-73
2022/07/22 08:47:43;;;;;;;8.73;5.47;;;;;;;;;;4921728;29;20036;-72
2022/07/22 08:50:23;;;;;;;7.47;5.10;;;;;;;;;;4922553;29;20476;-71
2022/07/22 08:53:13;;;;;;;6.20;5.15;;;;;;;;;;4916129;29;20043;-72
2022/07/22 08:55:45;;;;;;;8.70;4.95;;;;;;;;;;4922514;29;20059;-73
2022/07/22 08:58:11;;;;;;;;;;;;;;;;;;4922672;29;20568;-71
2022/07/22 09:00:37;;;;;;;9.38;5.20;;;;;;;;;;4923590;29;20029;-72
2022/07/22 09:03:25;;;;;;;6.55;4.60;;;;;;;;;;4922715;29;20020;-73
2022/07/22 09:05:54;;;;;;;7.72;5.95;;;;;;;;;;4922641;29;20493;-72
2022/07/22 09:08:21;;;;;;;10.77;5.25;;;;;;;;;;4922544;29;20032;-70
2022/07/22 09:10:55;;;;;;;6.60;5.03;;;;;;;;;;4921497;29;20047;-70
2022/07/22 09:13:45;;;;;;;7.18;5.47;;;;;;;;;;4926196;29;20055;-75
2022/07/22 09:16:46;;;;;;;8.23;4.57;;;;;;;;;;4942351;29;20043;-73
2022/07/22 09:19:38;;;;;;;12.98;5.20;;;;;;;;;;4923815;29;20044;-73
2022/07/22 09:22:43;;;;;;;6.90;5.82;;;;;;;;;;4927158;29;20458;-75
2022/07/22 09:25:33;;;;;;;9.95;5.35;;;;;;;;;;4926456;29;20035;-75
2022/07/22 09:28:24;;;;;;;9.23;5.05;;;;;;;;;;4924513;29;20055;-71
2022/07/22 09:31:23;;;;;;;8.50;5.15;;;;;;;;;;4926596;29;20054;-71
2022/07/22 09:33:50;;;;;;;5.95;5.00;;;;;;;;;;4926072;29;20094;-72
2022/07/22 09:36:21;;;;;;;6.80;5.43;;;;;;;;;;4926332;29;20051;-73
2022/07/22 09:38:48;;;;;;;7.13;4.68;;;;;;;;;;4910141;29;20064;-74
2022/07/22 09:41:14;;;;;;;5.07;4.40;;;;;;;;;;4926115;29;20643;-71
2022/07/22 09:43:39;;;;;;;7.30;5.28;;;;;;;;;;4926567;29;20043;-74
2022/07/22 09:46:06;;;;;;;5.43;4.63;;;;;;;;;;4926311;29;20024;-73
2022/07/22 09:49:03;;;;;;;10.05;4.93;;;;;;;;;;4930896;29;20095;-72
2022/07/22 09:51:39;;;;;;;5.22;4.72;;;;;;;;;;4926978;29;20089;-72
2022/07/22 09:54:31;;;;;;;5.80;4.72;;;;;;;;;;4926321;29;20043;-72
2022/07/22 09:56:58;;;;;;;5.53;4.55;;;;;;;;;;4926850;29;20404;-73
2022/07/22 09:59:24;;;;;;;8.23;4.70;;;;;;;;;;4926362;29;20481;-73
2022/07/22 10:02:03;;;;;;;8.90;4.93;;;;;;;;;;4926477;29;20413;-73
2022/07/22 10:04:33;;;;;;;6.30;4.80;;;;;;;;;;4924991;29;20062;-73
2022/07/22 10:07:01;;;;;;;6.40;5.18;;;;;;;;;;4925349;29;20035;-71
2022/07/22 10:09:32;;;;;;;6.93;5.20;;;;;;;;;;4925404;29;20043;-74
2022/07/22 10:11:58;;;;;;;9.30;5.30;;;;;;;;;;4926763;29;20046;-72
2022/07/22 10:14:24;;;;;;;6.50;4.90;;;;;;;;;;4924877;29;20036;-73
2022/07/22 10:16:54;;;;;;;6.82;5.20;;;;;;;;;;4923804;29;20401;-72
2022/07/22 10:19:20;;;;;;;8.15;5.25;;;;;;;;;;4924387;29;20039;-74
2022/07/22 10:21:45;;;;;;;7.55;4.88;;;;;;;;;;4926178;29;20429;-74
2022/07/22 10:24:18;;;;;;;9.45;4.88;;;;;;;;;;4923963;29;20038;-77
2022/07/22 10:26:55;;;;;;;6.63;4.70;;;;;;;;;;4923757;29;20071;-73
2022/07/22 10:29:24;;;;;;;6.07;4.70;;;;;;;;;;4925861;29;20039;-72
2022/07/22 10:31:49;;;;;;;10.13;4.82;;;;;;;;;;4926418;29;20039;-72
2022/07/22 10:34:15;;;;;;;6.40;4.70;;;;;;;;;;4929050;29;20042;-73
2022/07/22 10:36:42;;;;;;;7.50;4.50;;;;;;;;;;4927229;29;20102;-73
2022/07/22 10:39:11;;;;;;;7.97;5.07;;;;;;;;;;4926836;29;20039;-73
2022/07/22 10:41:41;;;;;;;8.77;5.00;;;;;;;;;;4932440;29;20039;-73
2022/07/22 10:44:07;;;;;;;5.55;4.68;;;;;;;;;;4931265;29;20508;-72
2022/07/22 10:46:53;;;;;;;5.20;4.70;;;;;;;;;;4926716;29;20071;-75
2022/07/22 10:49:24;;;;;;;6.18;5.50;;;;;;;;;;4928432;29;20142;-71
2022/07/22 10:52:08;;;;;;;6.00;4.93;;;;;;;;;;4927592;29;20050;-74
2022/07/22 10:54:33;;;;;;;5.90;4.55;;;;;;;;;;4926299;29;20036;-73
2022/07/22 10:57:02;;;;;;;5.97;4.97;;;;;;;;;;4925883;29;20035;-72
2022/07/22 10:59:27;;;;;;;6.07;5.25;;;;;;;;;;4926358;29;20046;-74
2022/07/22 11:01:54;;;;;;;7.07;4.78;;;;;;;;;;4927051;29;20043;-72
2022/07/22 11:04:25;;;;;;;7.95;5.50;;;;;;;;;;4926891;29;20043;-73
2022/07/22 11:06:53;;;;;;;8.40;5.68;;;;;;;;;;4925456;29;20523;-74
2022/07/22 11:09:21;;;;;;;8.27;6.03;;;;;;;;;;4925761;29;20050;-72
2022/07/22 11:11:49;;;;;;;6.75;6.03;;;;;;;;;;4924872;29;20050;-73
2022/07/22 11:14:27;;;;;;;8.23;6.18;;;;;;;;;;4925626;29;20127;-73
2022/07/22 11:16:55;;;;;;;6.75;5.55;;;;;;;;;;4925453;29;20042;-72
2022/07/22 11:19:23;;;;;;;6.75;6.15;;;;;;;;;;4925395;29;20501;-72
2022/07/22 11:21:53;;;;;;;10.15;5.68;;;;;;;;;;4925024;29;20039;-73
2022/07/22 11:24:19;;;;;;;6.47;5.83;;;;;;;;;;4908535;29;20032;-72
2022/07/22 11:26:48;;;;;;;7.53;5.80;;;;;;;;;;4925517;29;21225;-76
2022/07/22 11:29:33;;;;;;;7.43;5.43;;;;;;;;;;4926410;29;20043;-73
2022/07/22 11:32:00;;;;;;;11.27;6.03;;;;;;;;;;4923409;29;20079;-76
2022/07/22 11:34:26;;;;;;;7.43;5.72;;;;;;;;;;4922800;29;21028;-78
2022/07/22 11:36:53;;;;;;;6.22;5.60;;;;;;;;;;4924887;29;20039;-75
2022/07/22 11:39:24;;;;;;;8.48;5.75;;;;;;;;;;4925332;29;20059;-72
2022/07/22 11:41:51;;;;;;;6.40;5.80;;;;;;;;;;4925243;29;20040;-75
2022/07/22 11:44:22;;;;;;;9.05;6.05;;;;;;;;;;4923811;29;20040;-71
2022/07/22 11:46:48;;;;;;;;;;;;;;;;;;4924251;29;20106;-72
2022/07/22 11:49:15;;;;;;;6.60;5.78;;;;;;;;;;4923792;29;19923;-73
2022/07/22 11:51:41;;;;;;;14.50;6.38;;;;;;;;;;4925061;29;20044;-76
2022/07/22 11:54:07;;;;;;;7.15;5.57;;;;;;;;;;4924594;29;20090;-73
2022/07/22 11:56:33;;;;;;;8.70;5.80;;;;;;;;;;4926864;29;20039;-72
2022/07/22 11:58:58;;;;;;;6.90;6.30;;;;;;;;;;4926356;29;20670;-73
2022/07/22 12:01:28;;;;;;;9.43;6.05;;;;;;;;;;4924753;29;20897;-73
2022/07/22 12:03:57;;;;;;;10.47;6.23;;;;;;;;;;4924576;29;20048;-73
2022/07/22 12:06:23;;;;;;;8.90;6.03;;;;;;;;;;4923989;29;20090;-73
2022/07/22 12:09:10;;;;;;;9.50;6.18;;;;;;;;;;4924594;29;20729;-72
2022/07/22 12:11:37;;;;;;;8.13;5.80;;;;;;;;;;4924218;29;20112;-72
2022/07/22 12:14:14;;;;;;;6.63;5.97;;;;;;;;;;4924553;29;20158;-76
2022/07/22 12:16:41;;;;;;;6.30;5.57;;;;;;;;;;4923778;29;20040;-71
2022/07/22 12:19:10;;;;;;;6.65;5.93;;;;;;;;;;4924390;29;20497;-71
2022/07/22 12:21:50;;;;;;;6.93;5.88;;;;;;;;;;4925202;29;20047;-76
2022/07/22 12:24:16;;;;;;;8.00;5.55;;;;;;;;;;4925943;29;20481;-73
2022/07/22 12:26:47;;;;;;;6.80;5.97;;;;;;;;;;4925753;29;20054;-73
2022/07/22 12:29:15;;;;;;;6.18;5.20;;;;;;;;;;4923700;29;20201;-73
2022/07/22 12:31:42;;;;;;;7.10;5.05;;;;;;;;;;4924678;29;20047;-72
2022/07/22 12:34:08;;;;;;;6.13;5.53;;;;;;;;;;4924506;29;20079;-71
2022/07/22 12:36:33;;;;;;;6.57;5.80;;;;;;;;;;4906465;29;20035;-74
2022/07/22 12:39:11;;;;;;;9.35;6.13;;;;;;;;;;4923456;29;20032;-71
2022/07/22 12:41:45;;;;;;;8.20;5.75;;;;;;;;;;4923699;29;20036;-72
2022/07/22 12:44:25;;;;;;;6.63;5.47;;;;;;;;;;4924169;29;20623;-76
2022/07/22 12:46:53;;;;;;;5.70;5.10;;;;;;;;;;4923198;29;20098;-75
2022/07/22 12:49:20;;;;;;;8.98;5.50;;;;;;;;;;4922635;29;20035;-73
2022/07/22 12:52:24;;;;;;;5.60;5.10;;;;;;;;;;4923629;29;20028;-72
2022/07/22 12:54:50;;;;;;;6.53;5.10;;;;;;;;;;4848960;29;20044;-75
2022/07/22 12:57:15;;;;;;;7.38;5.07;;;;;;;;;;4845950;29;20192;-72
2022/07/22 12:59:51;;;;;;;5.93;5.13;;;;;;;;;;4881546;29;20048;-73
2022/07/22 13:02:16;;;;;;;8.30;5.68;;;;;;;;;;4923109;29;20210;-72
2022/07/22 13:04:42;;;;;;;6.25;5.30;;;;;;;;;;4924256;29;20106;-72
2022/07/22 13:07:07;;;;;;;10.00;5.93;;;;;;;;;;4923877;29;20277;-72
2022/07/22 13:09:33;;;;;;;5.97;5.47;;;;;;;;;;4923254;29;20044;-73
2022/07/22 13:11:58;;;;;;;6.05;5.40;;;;;;;;;;4922389;29;20078;-71
2022/07/22 13:14:23;;;;;;;10.88;5.50;;;;;;;;;;4923524;29;20385;-75
2022/07/22 13:16:49;;;;;;;11.50;5.28;;;;;;;;;;4925031;29;20481;-73
2022/07/22 13:19:14;;;;;;;8.73;5.50;;;;;;;;;;4929705;29;20051;-74
2022/07/22 13:21:40;;;;;;;5.75;5.15;;;;;;;;;;4925718;29;20055;-74
2022/07/22 13:24:06;;;;;;;8.98;5.22;;;;;;;;;;4921559;29;20047;-76
2022/07/22 13:26:32;;;;;;;9.40;5.45;;;;;;;;;;4923346;29;20082;-74
2022/07/22 13:28:57;;;;;;;8.82;5.22;;;;;;;;;;4922806;29;20123;-72
2022/07/22 13:31:22;;;;;;;7.88;5.55;;;;;;;;;;4923356;29;20982;-72
2022/07/22 13:33:48;;;;;;;7.68;5.28;;;;;;;;;;4922696;29;20043;-70
2022/07/22 13:36:13;;;;;;;6.05;5.25;;;;;;;;;;4922580;29;20071;-74
2022/07/22 13:38:39;;;;;;;9.68;5.53;;;;;;;;;;4924204;29;20036;-73
2022/07/22 13:41:16;;;;;;;11.48;5.38;;;;;;;;;;4922915;29;20051;-72
2022/07/22 13:43:42;;;;;;;7.82;5.60;;;;;;;;;;4923890;29;20045;-73
2022/07/22 13:46:07;;;;;;;8.95;5.60;;;;;;;;;;4921708;29;20031;-74
2022/07/22 13:48:33;;;;;;;7.68;5.80;;;;;;;;;;4923082;29;20091;-72
2022/07/22 13:50:58;;;;;;;7.57;5.10;;;;;;;;;;4921545;29;20047;-73
2022/07/22 13:53:24;;;;;;;11.05;5.70;;;;;;;;;;4923626;29;20050;-75
2022/07/22 13:55:49;;;;;;;6.45;5.30;;;;;;;;;;4921162;29;20059;-77
2022/07/22 13:58:14;;;;;;;11.65;5.32;;;;;;;;;;4921128;29;20039;-78
2022/07/22 14:00:40;;;;;;;5.78;5.20;;;;;;;;;;4926378;29;20086;-75
2022/07/22 14:03:06;;;;;;;11.73;6.03;;;;;;;;;;4926531;29;20063;-72
2022/07/22 14:05:32;;;;;;;6.68;5.97;;;;;;;;;;4926573;29;20039;-72
2022/07/22 14:07:57;;;;;;;8.32;5.63;;;;;;;;;;4925742;29;20040;-73
2022/07/22 14:10:22;;;;;;;7.95;5.80;;;;;;;;;;4926664;29;20035;-74
2022/07/22 14:12:49;;;;;;;8.30;5.70;;;;;;;;;;4926296;29;20048;-79
2022/07/22 14:15:15;;;;;;;8.25;6.00;;;;;;;;;;4925974;29;20124;-74
2022/07/22 14:17:40;;;;;;;9.82;5.97;;;;;;;;;;4925184;29;20048;-75
2022/07/22 14:20:07;;;;;;;7.68;6.10;;;;;;;;;;4926111;29;20054;-73
2022/07/22 14:22:34;;;;;;;9.95;6.13;;;;;;;;;;4925768;29;20039;-74
2022/07/22 14:24:59;;;;;;;8.88;6.07;;;;;;;;;;4925600;29;20054;-77
2022/07/22 14:27:25;;;;;;;6.70;6.03;;;;;;;;;;4925083;29;20036;-74
2022/07/22 14:29:50;;;;;;;9.73;5.55;;;;;;;;;;4925369;29;20034;-75
2022/07/22 14:32:16;;;;;;;9.02;6.00;;;;;;;;;;4925989;29;20540;-72
2022/07/22 14:34:41;;;;;;;8.50;6.18;;;;;;;;;;4926105;29;20549;-73
2022/07/22 14:37:08;;;;;;;13.55;10.55;;;;;;;;;;4926344;29;20584;-72
2022/07/22 14:39:34;;;;;;;9.43;5.88;;;;;;;;;;4925724;29;20036;-73